TimePST,TemperatureF,Dew PointF,Humidity,Sea Level PressureIn,VisibilityMPH,Wind Direction,Wind SpeedMPH,Gust SpeedMPH,PrecipitationIn,Events,Conditions,WindDirDegrees,DateUTC
12:58 AM,39.7,39.6,99,30.06,10.0,South,8.1,-,N/A,,Overcast,190,2013-01-27 08:58:00
1:58 AM,39.4,39.2,99,30.06,10.0,South,6.9,-,N/A,,Overcast,180,2013-01-27 09:58:00
2:18 AM,39.2,37.4,93,30.05,10.0,South,6.9,-,N/A,,Overcast,180,2013-01-27 10:18:00
2:28 AM,37.4,37.4,100,30.05,10.0,South,5.8,-,N/A,,Overcast,180,2013-01-27 10:28:00
2:58 AM,39.2,39.0,99,30.06,10.0,South,6.9,-,N/A,,Overcast,190,2013-01-27 10:58:00
3:12 AM,39.2,39.2,100,30.04,10.0,SSW,8.1,-,N/A,Rain,Light Rain,200,2013-01-27 11:12:00
3:38 AM,39.2,39.2,100,30.04,10.0,South,6.9,-,N/A,,Overcast,180,2013-01-27 11:38:00
3:58 AM,39.2,38.8,99,30.06,10.0,South,8.1,-,0.00,,Overcast,190,2013-01-27 11:58:00
4:58 AM,39.7,39.4,99,30.06,10.0,South,6.9,-,0.01,,Overcast,190,2013-01-27 12:58:00
5:58 AM,39.4,39.2,99,30.06,10.0,SSW,5.8,-,N/A,,Overcast,200,2013-01-27 13:58:00
6:23 AM,39.2,39.2,100,30.05,10.0,SSW,6.9,-,N/A,,Overcast,200,2013-01-27 14:23:00
6:38 AM,39.2,39.2,100,30.05,10.0,SSW,6.9,-,N/A,,Overcast,200,2013-01-27 14:38:00
6:58 AM,39.2,39.0,99,30.07,10.0,South,6.9,-,N/A,,Overcast,180,2013-01-27 14:58:00
7:28 AM,37.4,37.4,100,30.05,10.0,South,6.9,-,N/A,,Overcast,180,2013-01-27 15:28:00
7:58 AM,37.0,36.9,99,30.07,10.0,South,8.1,-,N/A,,Scattered Clouds,180,2013-01-27 15:58:00
8:58 AM,39.2,39.0,99,30.08,10.0,South,10.4,-,N/A,,Clear,190,2013-01-27 16:58:00
9:13 AM,39.2,39.2,100,30.07,10.0,South,11.5,-,N/A,,Mostly Cloudy,190,2013-01-27 17:13:00
9:37 AM,41.0,39.2,93,30.07,10.0,South,10.4,-,N/A,,Scattered Clouds,190,2013-01-27 17:37:00
9:58 AM,40.5,39.6,97,30.09,10.0,South,10.4,-,0.00,Rain,Light Rain,190,2013-01-27 17:58:00
10:28 AM,41.0,39.2,93,30.08,10.0,SSW,10.4,-,N/A,Rain,Light Rain,200,2013-01-27 18:28:00
10:58 AM,40.8,38.8,93,30.10,10.0,SSW,12.7,-,0.01,Rain,Light Rain,200,2013-01-27 18:58:00
11:58 AM,40.6,40.1,98,30.08,10.0,SSW,9.2,-,0.02,Rain,Light Rain,200,2013-01-27 19:58:00
11:59 AM,41.0,41.0,100,30.06,10.0,SSW,9.2,-,N/A,,Overcast,200,2013-01-27 19:59:00
12:08 PM,41.0,39.2,93,30.06,10.0,South,13.8,-,N/A,Rain,Light Rain,190,2013-01-27 20:08:00
12:48 PM,41.0,41.0,100,30.04,10.0,South,10.4,-,N/A,Rain,Light Rain,180,2013-01-27 20:48:00
12:58 PM,40.5,40.3,99,30.06,10.0,South,9.2,-,0.01,Rain,Light Rain,190,2013-01-27 20:58:00
1:03 PM,41.0,41.0,100,30.04,10.0,South,11.5,-,N/A,Rain,Light Rain,190,2013-01-27 21:03:00
1:58 PM,40.3,40.1,99,30.04,10.0,South,10.4,-,0.02,Rain,Light Rain,180,2013-01-27 21:58:00
2:08 PM,41.0,39.2,93,30.02,10.0,South,11.5,-,N/A,Rain,Light Rain,190,2013-01-27 22:08:00
2:38 PM,41.0,39.2,93,30.02,10.0,South,9.2,-,N/A,Rain,Light Rain,180,2013-01-27 22:38:00
2:48 PM,41.0,39.2,93,30.02,10.0,South,9.2,-,N/A,Rain,Light Rain,180,2013-01-27 22:48:00
2:58 PM,40.3,40.1,99,30.04,10.0,South,9.2,-,0.01,Rain,Light Rain,180,2013-01-27 22:58:00
3:03 PM,41.0,39.2,93,30.02,10.0,South,9.2,-,N/A,Rain,Light Rain,180,2013-01-27 23:03:00
3:08 PM,41.0,39.2,93,30.02,10.0,South,10.4,-,N/A,Rain,Light Rain,180,2013-01-27 23:08:00
3:13 PM,41.0,39.2,93,30.02,10.0,South,9.2,-,N/A,Rain,Light Rain,180,2013-01-27 23:13:00
3:58 PM,39.7,39.6,99,30.03,10.0,South,11.5,-,0.01,Rain,Light Rain,190,2013-01-27 23:58:00
3:59 PM,39.2,39.2,100,30.02,10.0,South,10.4,-,N/A,,Overcast,190,2013-01-27 23:59:00
4:24 PM,39.2,39.2,100,30.01,10.0,South,11.5,-,N/A,,Mostly Cloudy,190,2013-01-28 00:24:00
4:58 PM,39.0,38.8,99,30.03,10.0,South,9.2,-,0.00,,Mostly Cloudy,190,2013-01-28 00:58:00
5:03 PM,39.2,39.2,100,30.01,10.0,South,9.2,-,N/A,,Mostly Cloudy,190,2013-01-28 01:03:00
5:58 PM,38.5,38.1,99,30.02,10.0,South,12.7,-,N/A,,Mostly Cloudy,190,2013-01-28 01:58:00
6:08 PM,39.2,37.4,93,30.00,10.0,South,11.5,-,N/A,,Scattered Clouds,190,2013-01-28 02:08:00
6:58 PM,37.4,37.2,99,30.03,10.0,South,9.2,-,N/A,,Scattered Clouds,180,2013-01-28 02:58:00
7:03 PM,37.4,37.4,100,30.01,10.0,South,8.1,-,N/A,,Mostly Cloudy,180,2013-01-28 03:03:00
7:58 PM,38.3,37.8,98,30.03,10.0,SSW,8.1,-,N/A,,Mostly Cloudy,200,2013-01-28 03:58:00
8:13 PM,39.2,37.4,93,30.01,10.0,SSW,5.8,-,N/A,,Mostly Cloudy,200,2013-01-28 04:13:00
8:48 PM,37.4,37.4,100,30.01,10.0,South,9.2,-,N/A,Rain,Light Rain,180,2013-01-28 04:48:00
8:58 PM,37.9,37.8,99,30.03,10.0,South,8.1,-,0.00,Rain,Light Rain,180,2013-01-28 04:58:00
9:04 PM,37.4,37.4,100,30.01,10.0,South,6.9,-,N/A,,Scattered Clouds,170,2013-01-28 05:04:00
9:18 PM,37.4,37.4,100,30.01,10.0,South,6.9,-,N/A,Rain,Light Rain,180,2013-01-28 05:18:00
9:41 PM,37.4,37.4,100,30.01,10.0,South,8.1,-,N/A,,Overcast,190,2013-01-28 05:41:00
9:58 PM,37.4,37.2,99,30.03,10.0,South,6.9,-,0.00,,Mostly Cloudy,190,2013-01-28 05:58:00
10:03 PM,37.4,37.4,100,30.01,10.0,South,6.9,-,N/A,,Mostly Cloudy,190,2013-01-28 06:03:00
10:33 PM,37.4,37.4,100,30.00,10.0,South,5.8,-,N/A,,Mostly Cloudy,170,2013-01-28 06:33:00
10:38 PM,37.4,37.4,100,30.00,10.0,South,4.6,-,N/A,,Mostly Cloudy,170,2013-01-28 06:38:00
10:43 PM,37.4,35.6,93,30.00,10.0,South,5.8,-,N/A,,Mostly Cloudy,170,2013-01-28 06:43:00
10:53 PM,37.4,35.6,93,30.00,10.0,South,4.6,-,N/A,,Mostly Cloudy,190,2013-01-28 06:53:00
10:58 PM,36.9,36.5,99,30.03,10.0,SSW,5.8,-,N/A,,Mostly Cloudy,200,2013-01-28 06:58:00
11:33 PM,37.4,37.4,100,30.00,10.0,South,8.1,-,N/A,,Overcast,170,2013-01-28 07:33:00
11:48 PM,37.4,37.4,100,30.01,10.0,South,9.2,-,N/A,,Overcast,180,2013-01-28 07:48:00
11:58 PM,38.3,38.1,99,30.03,10.0,South,9.2,-,N/A,,Overcast,190,2013-01-28 07:58:00